sensor_id;sensor_type;location;lat;lon;timestamp;temperature;humidity
43894;DHT22;29556;50.846;4.442;2022-08-01T00:02:27;21.70;76.60
43894;DHT22;29556;50.846;4.442;2022-08-01T00:04:54;21.70;76.60
43894;DHT22;29556;50.846;4.442;2022-08-01T00:07:20;21.70;76.40
43894;DHT22;29556;50.846;4.442;2022-08-01T00:09:46;21.70;76.40
43894;DHT22;29556;50.846;4.442;2022-08-01T00:12:11;21.70;76.70
43894;DHT22;29556;50.846;4.442;2022-08-01T00:14:37;21.70;76.70
43894;DHT22;29556;50.846;4.442;2022-08-01T00:17:03;21.70;77.00
43894;DHT22;29556;50.846;4.442;2022-08-01T00:19:29;21.70;76.80
43894;DHT22;29556;50.846;4.442;2022-08-01T00:21:54;21.70;76.70
43894;DHT22;29556;50.846;4.442;2022-08-01T00:24:20;21.70;76.50
43894;DHT22;29556;50.846;4.442;2022-08-01T00:26:45;21.80;76.60
43894;DHT22;29556;50.846;4.442;2022-08-01T00:29:11;21.90;76.40
43894;DHT22;29556;50.846;4.442;2022-08-01T00:31:37;21.80;76.20
43894;DHT22;29556;50.846;4.442;2022-08-01T00:34:02;21.80;76.50
43894;DHT22;29556;50.846;4.442;2022-08-01T00:36:28;21.80;76.50
43894;DHT22;29556;50.846;4.442;2022-08-01T00:38:53;21.80;76.80
43894;DHT22;29556;50.846;4.442;2022-08-01T00:41:19;21.70;76.80
43894;DHT22;29556;50.846;4.442;2022-08-01T00:43:46;21.80;76.90
43894;DHT22;29556;50.846;4.442;2022-08-01T00:46:11;21.80;76.70
43894;DHT22;29556;50.846;4.442;2022-08-01T00:48:37;21.80;76.80
43894;DHT22;29556;50.846;4.442;2022-08-01T00:51:04;21.80;76.80
43894;DHT22;29556;50.846;4.442;2022-08-01T00:53:30;21.60;77.20
43894;DHT22;29556;50.846;4.442;2022-08-01T00:55:56;21.60;77.50
43894;DHT22;29556;50.846;4.442;2022-08-01T00:58:22;21.50;77.90
43894;DHT22;29556;50.846;4.442;2022-08-01T01:00:48;21.60;77.60
43894;DHT22;29556;50.846;4.442;2022-08-01T01:03:14;21.60;77.90
43894;DHT22;29556;50.846;4.442;2022-08-01T01:05:51;21.60;77.60
43894;DHT22;29556;50.846;4.442;2022-08-01T01:08:27;21.60;77.60
43894;DHT22;29556;50.846;4.442;2022-08-01T01:11:07;21.60;77.80
43894;DHT22;29556;50.846;4.442;2022-08-01T01:13:38;21.60;77.90
43894;DHT22;29556;50.846;4.442;2022-08-01T01:16:11;21.60;77.60
43894;DHT22;29556;50.846;4.442;2022-08-01T01:19:03;21.50;77.80
43894;DHT22;29556;50.846;4.442;2022-08-01T01:21:46;21.60;77.80
43894;DHT22;29556;50.846;4.442;2022-08-01T01:29:41;21.50;77.90
43894;DHT22;29556;50.846;4.442;2022-08-01T01:35:01;21.40;78.40
43894;DHT22;29556;50.846;4.442;2022-08-01T01:37:30;21.50;78.40
43894;DHT22;29556;50.846;4.442;2022-08-01T01:39:58;21.50;78.30
43894;DHT22;29556;50.846;4.442;2022-08-01T01:42:25;21.50;78.20
43894;DHT22;29556;50.846;4.442;2022-08-01T01:44:52;21.70;78.00
43894;DHT22;29556;50.846;4.442;2022-08-01T01:47:20;21.70;78.00
43894;DHT22;29556;50.846;4.442;2022-08-01T01:49:47;21.70;77.70
43894;DHT22;29556;50.846;4.442;2022-08-01T01:52:16;21.60;78.00
43894;DHT22;29556;50.846;4.442;2022-08-01T01:54:52;21.50;78.10
43894;DHT22;29556;50.846;4.442;2022-08-01T01:57:18;21.60;78.20
43894;DHT22;29556;50.846;4.442;2022-08-01T01:59:46;21.60;78.30
43894;DHT22;29556;50.846;4.442;2022-08-01T02:02:14;21.60;78.30
43894;DHT22;29556;50.846;4.442;2022-08-01T02:04:44;21.60;78.40
43894;DHT22;29556;50.846;4.442;2022-08-01T02:07:12;21.70;78.40
43894;DHT22;29556;50.846;4.442;2022-08-01T02:09:41;21.60;78.80
43894;DHT22;29556;50.846;4.442;2022-08-01T02:12:07;21.50;79.00
43894;DHT22;29556;50.846;4.442;2022-08-01T02:14:35;21.40;79.30
43894;DHT22;29556;50.846;4.442;2022-08-01T02:17:02;21.40;79.60
43894;DHT22;29556;50.846;4.442;2022-08-01T02:19:29;21.30;80.20
43894;DHT22;29556;50.846;4.442;2022-08-01T02:21:59;21.40;80.10
43894;DHT22;29556;50.846;4.442;2022-08-01T02:24:36;21.40;79.90
43894;DHT22;29556;50.846;4.442;2022-08-01T02:27:10;21.50;79.60
43894;DHT22;29556;50.846;4.442;2022-08-01T02:29:49;21.40;79.80
43894;DHT22;29556;50.846;4.442;2022-08-01T02:32:23;21.40;79.80
43894;DHT22;29556;50.846;4.442;2022-08-01T02:34:51;21.40;79.70
43894;DHT22;29556;50.846;4.442;2022-08-01T02:37:17;21.50;79.70
43894;DHT22;29556;50.846;4.442;2022-08-01T02:39:47;21.60;79.40
43894;DHT22;29556;50.846;4.442;2022-08-01T02:42:14;21.60;79.20
43894;DHT22;29556;50.846;4.442;2022-08-01T02:44:43;21.60;79.30
43894;DHT22;29556;50.846;4.442;2022-08-01T02:47:09;21.60;79.40
43894;DHT22;29556;50.846;4.442;2022-08-01T02:49:42;21.60;79.40
43894;DHT22;29556;50.846;4.442;2022-08-01T02:52:12;21.60;79.20
43894;DHT22;29556;50.846;4.442;2022-08-01T02:54:39;21.60;79.20
43894;DHT22;29556;50.846;4.442;2022-08-01T02:57:07;21.50;79.30
43894;DHT22;29556;50.846;4.442;2022-08-01T02:59:35;21.50;79.40
43894;DHT22;29556;50.846;4.442;2022-08-01T03:02:03;21.60;79.40
43894;DHT22;29556;50.846;4.442;2022-08-01T03:04:33;21.40;79.70
43894;DHT22;29556;50.846;4.442;2022-08-01T03:07:02;21.40;80.00
43894;DHT22;29556;50.846;4.442;2022-08-01T03:09:30;21.30;80.30
43894;DHT22;29556;50.846;4.442;2022-08-01T03:12:02;21.40;80.40
43894;DHT22;29556;50.846;4.442;2022-08-01T03:14:35;21.60;80.30
43894;DHT22;29556;50.846;4.442;2022-08-01T03:17:02;21.50;80.00
43894;DHT22;29556;50.846;4.442;2022-08-01T03:19:30;21.40;80.20
43894;DHT22;29556;50.846;4.442;2022-08-01T03:21:57;21.50;80.40
43894;DHT22;29556;50.846;4.442;2022-08-01T03:24:28;21.40;80.40
43894;DHT22;29556;50.846;4.442;2022-08-01T03:26:56;21.30;81.00
43894;DHT22;29556;50.846;4.442;2022-08-01T03:29:26;21.40;80.70
43894;DHT22;29556;50.846;4.442;2022-08-01T03:31:53;21.50;80.70
43894;DHT22;29556;50.846;4.442;2022-08-01T03:34:19;21.40;80.60
43894;DHT22;29556;50.846;4.442;2022-08-01T03:36:49;21.40;80.90
43894;DHT22;29556;50.846;4.442;2022-08-01T03:39:19;21.40;80.80
43894;DHT22;29556;50.846;4.442;2022-08-01T03:41:51;21.40;80.90
43894;DHT22;29556;50.846;4.442;2022-08-01T03:44:24;21.30;81.30
43894;DHT22;29556;50.846;4.442;2022-08-01T03:47:03;21.40;81.50
43894;DHT22;29556;50.846;4.442;2022-08-01T03:49:36;21.30;81.20
43894;DHT22;29556;50.846;4.442;2022-08-01T03:52:04;21.30;82.00
43894;DHT22;29556;50.846;4.442;2022-08-01T03:54:36;21.30;81.80
43894;DHT22;29556;50.846;4.442;2022-08-01T03:57:04;21.30;81.50
43894;DHT22;29556;50.846;4.442;2022-08-01T03:59:32;21.30;81.60
43894;DHT22;29556;50.846;4.442;2022-08-01T04:01:59;21.40;81.70
43894;DHT22;29556;50.846;4.442;2022-08-01T04:04:28;21.40;81.50
43894;DHT22;29556;50.846;4.442;2022-08-01T04:06:54;21.40;81.60
43894;DHT22;29556;50.846;4.442;2022-08-01T04:09:21;21.40;81.70
43894;DHT22;29556;50.846;4.442;2022-08-01T04:11:47;21.40;81.50
43894;DHT22;29556;50.846;4.442;2022-08-01T04:14:13;21.40;81.70
43894;DHT22;29556;50.846;4.442;2022-08-01T04:16:39;21.30;82.50
43894;DHT22;29556;50.846;4.442;2022-08-01T04:19:05;21.30;83.10
43894;DHT22;29556;50.846;4.442;2022-08-01T04:21:34;21.10;83.90
43894;DHT22;29556;50.846;4.442;2022-08-01T04:24:12;21.20;83.90
43894;DHT22;29556;50.846;4.442;2022-08-01T04:26:39;21.00;84.90
43894;DHT22;29556;50.846;4.442;2022-08-01T04:29:06;21.00;84.70
43894;DHT22;29556;50.846;4.442;2022-08-01T04:31:33;21.10;84.30
43894;DHT22;29556;50.846;4.442;2022-08-01T04:34:02;21.10;84.40
43894;DHT22;29556;50.846;4.442;2022-08-01T04:36:29;21.10;84.20
43894;DHT22;29556;50.846;4.442;2022-08-01T04:39:00;21.20;84.10
43894;DHT22;29556;50.846;4.442;2022-08-01T04:41:26;21.20;83.80
43894;DHT22;29556;50.846;4.442;2022-08-01T04:43:53;21.20;83.50
43894;DHT22;29556;50.846;4.442;2022-08-01T04:46:22;21.20;83.90
43894;DHT22;29556;50.846;4.442;2022-08-01T04:48:50;21.30;84.10
43894;DHT22;29556;50.846;4.442;2022-08-01T04:51:16;21.20;83.80
43894;DHT22;29556;50.846;4.442;2022-08-01T04:53:44;21.30;84.00
43894;DHT22;29556;50.846;4.442;2022-08-01T04:56:12;21.30;84.00
43894;DHT22;29556;50.846;4.442;2022-08-01T04:58:39;21.30;83.90
43894;DHT22;29556;50.846;4.442;2022-08-01T05:01:06;21.20;84.10
43894;DHT22;29556;50.846;4.442;2022-08-01T05:03:35;21.30;83.90
43894;DHT22;29556;50.846;4.442;2022-08-01T05:06:01;21.30;84.00
43894;DHT22;29556;50.846;4.442;2022-08-01T05:08:26;21.30;83.80
43894;DHT22;29556;50.846;4.442;2022-08-01T05:10:52;21.30;83.80
43894;DHT22;29556;50.846;4.442;2022-08-01T05:13:18;21.30;83.70
43894;DHT22;29556;50.846;4.442;2022-08-01T05:15:44;21.40;83.60
43894;DHT22;29556;50.846;4.442;2022-08-01T05:18:09;21.40;83.50
43894;DHT22;29556;50.846;4.442;2022-08-01T05:20:35;21.40;83.60
43894;DHT22;29556;50.846;4.442;2022-08-01T05:23:04;21.40;83.50
43894;DHT22;29556;50.846;4.442;2022-08-01T05:25:30;21.40;83.50
43894;DHT22;29556;50.846;4.442;2022-08-01T05:27:55;21.40;83.70
43894;DHT22;29556;50.846;4.442;2022-08-01T05:30:21;21.50;83.80
43894;DHT22;29556;50.846;4.442;2022-08-01T05:32:47;21.40;83.50
43894;DHT22;29556;50.846;4.442;2022-08-01T05:35:12;21.40;83.50
43894;DHT22;29556;50.846;4.442;2022-08-01T05:37:38;21.40;83.60
43894;DHT22;29556;50.846;4.442;2022-08-01T05:40:04;21.40;83.40
43894;DHT22;29556;50.846;4.442;2022-08-01T05:42:30;21.40;83.60
43894;DHT22;29556;50.846;4.442;2022-08-01T05:44:56;21.40;83.50
43894;DHT22;29556;50.846;4.442;2022-08-01T05:47:21;21.50;84.20
43894;DHT22;29556;50.846;4.442;2022-08-01T05:49:47;21.50;83.50
43894;DHT22;29556;50.846;4.442;2022-08-01T05:52:13;21.50;83.60
43894;DHT22;29556;50.846;4.442;2022-08-01T05:54:39;21.50;83.70
43894;DHT22;29556;50.846;4.442;2022-08-01T05:57:05;21.50;83.70
43894;DHT22;29556;50.846;4.442;2022-08-01T05:59:31;21.60;83.80
43894;DHT22;29556;50.846;4.442;2022-08-01T06:01:57;21.60;83.90
43894;DHT22;29556;50.846;4.442;2022-08-01T06:04:23;21.60;83.80
43894;DHT22;29556;50.846;4.442;2022-08-01T06:06:48;21.70;84.00
43894;DHT22;29556;50.846;4.442;2022-08-01T06:09:14;21.70;84.00
43894;DHT22;29556;50.846;4.442;2022-08-01T06:11:40;21.80;84.00
43894;DHT22;29556;50.846;4.442;2022-08-01T06:14:06;21.80;84.00
43894;DHT22;29556;50.846;4.442;2022-08-01T06:16:32;21.80;83.90
43894;DHT22;29556;50.846;4.442;2022-08-01T06:18:57;21.80;84.00
43894;DHT22;29556;50.846;4.442;2022-08-01T06:21:23;22.00;84.10
43894;DHT22;29556;50.846;4.442;2022-08-01T06:23:49;22.00;84.10
43894;DHT22;29556;50.846;4.442;2022-08-01T06:26:18;22.00;83.40
43894;DHT22;29556;50.846;4.442;2022-08-01T06:28:47;22.10;83.70
43894;DHT22;29556;50.846;4.442;2022-08-01T06:31:12;22.10;83.70
43894;DHT22;29556;50.846;4.442;2022-08-01T06:33:39;22.10;83.80
43894;DHT22;29556;50.846;4.442;2022-08-01T06:36:05;22.10;83.50
43894;DHT22;29556;50.846;4.442;2022-08-01T06:38:30;22.10;83.90
43894;DHT22;29556;50.846;4.442;2022-08-01T06:40:56;22.10;83.10
43894;DHT22;29556;50.846;4.442;2022-08-01T06:43:22;22.00;82.70
43894;DHT22;29556;50.846;4.442;2022-08-01T06:45:47;22.10;83.20
43894;DHT22;29556;50.846;4.442;2022-08-01T06:48:16;22.20;82.60
43894;DHT22;29556;50.846;4.442;2022-08-01T06:50:42;22.30;82.80
43894;DHT22;29556;50.846;4.442;2022-08-01T06:53:08;22.30;82.60
43894;DHT22;29556;50.846;4.442;2022-08-01T06:55:33;22.40;82.90
43894;DHT22;29556;50.846;4.442;2022-08-01T06:57:59;22.50;83.10
43894;DHT22;29556;50.846;4.442;2022-08-01T07:00:26;22.60;81.80
43894;DHT22;29556;50.846;4.442;2022-08-01T07:02:56;22.70;81.30
43894;DHT22;29556;50.846;4.442;2022-08-01T07:05:23;22.60;81.50
43894;DHT22;29556;50.846;4.442;2022-08-01T07:07:49;22.60;81.30
43894;DHT22;29556;50.846;4.442;2022-08-01T07:10:14;22.60;81.20
43894;DHT22;29556;50.846;4.442;2022-08-01T07:12:40;22.60;82.00
43894;DHT22;29556;50.846;4.442;2022-08-01T07:15:08;22.60;81.20
43894;DHT22;29556;50.846;4.442;2022-08-01T07:17:41;22.60;80.80
43894;DHT22;29556;50.846;4.442;2022-08-01T07:20:09;22.60;80.70
43894;DHT22;29556;50.846;4.442;2022-08-01T07:22:37;22.70;81.00
43894;DHT22;29556;50.846;4.442;2022-08-01T07:25:05;22.60;80.00
43894;DHT22;29556;50.846;4.442;2022-08-01T07:27:32;22.60;79.90
43894;DHT22;29556;50.846;4.442;2022-08-01T07:29:58;22.80;80.50
43894;DHT22;29556;50.846;4.442;2022-08-01T07:32:23;22.90;80.70
43894;DHT22;29556;50.846;4.442;2022-08-01T07:34:49;23.00;79.80
43894;DHT22;29556;50.846;4.442;2022-08-01T07:37:15;23.10;79.90
43894;DHT22;29556;50.846;4.442;2022-08-01T07:39:41;23.10;78.80
43894;DHT22;29556;50.846;4.442;2022-08-01T07:42:09;23.00;77.60
43894;DHT22;29556;50.846;4.442;2022-08-01T07:44:36;23.10;79.00
43894;DHT22;29556;50.846;4.442;2022-08-01T07:47:02;23.30;78.90
43894;DHT22;29556;50.846;4.442;2022-08-01T07:49:30;23.40;77.80
43894;DHT22;29556;50.846;4.442;2022-08-01T07:51:55;23.40;77.50
43894;DHT22;29556;50.846;4.442;2022-08-01T07:54:21;23.50;77.90
43894;DHT22;29556;50.846;4.442;2022-08-01T07:56:50;23.70;77.80
43894;DHT22;29556;50.846;4.442;2022-08-01T07:59:15;23.70;77.50
43894;DHT22;29556;50.846;4.442;2022-08-01T08:01:41;23.70;75.80
43894;DHT22;29556;50.846;4.442;2022-08-01T08:04:07;23.70;75.60
43894;DHT22;29556;50.846;4.442;2022-08-01T08:06:33;23.70;76.30
43894;DHT22;29556;50.846;4.442;2022-08-01T08:08:58;23.70;76.00
43894;DHT22;29556;50.846;4.442;2022-08-01T08:11:24;23.80;76.40
43894;DHT22;29556;50.846;4.442;2022-08-01T08:13:50;23.70;75.20
43894;DHT22;29556;50.846;4.442;2022-08-01T08:16:16;23.70;75.50
43894;DHT22;29556;50.846;4.442;2022-08-01T08:18:43;23.80;76.10
43894;DHT22;29556;50.846;4.442;2022-08-01T08:21:09;23.90;75.60
43894;DHT22;29556;50.846;4.442;2022-08-01T08:23:34;24.00;75.10
43894;DHT22;29556;50.846;4.442;2022-08-01T08:26:19;24.20;74.80
43894;DHT22;29556;50.846;4.442;2022-08-01T08:28:44;24.20;73.10
43894;DHT22;29556;50.846;4.442;2022-08-01T08:31:10;24.10;71.40
43894;DHT22;29556;50.846;4.442;2022-08-01T08:33:36;24.30;73.90
43894;DHT22;29556;50.846;4.442;2022-08-01T08:36:01;24.40;73.30
43894;DHT22;29556;50.846;4.442;2022-08-01T08:38:27;24.40;72.90
43894;DHT22;29556;50.846;4.442;2022-08-01T08:40:53;24.40;72.30
43894;DHT22;29556;50.846;4.442;2022-08-01T08:43:19;24.40;71.20
43894;DHT22;29556;50.846;4.442;2022-08-01T08:45:47;24.40;71.50
43894;DHT22;29556;50.846;4.442;2022-08-01T08:48:13;24.20;69.30
43894;DHT22;29556;50.846;4.442;2022-08-01T08:50:41;24.20;71.90
43894;DHT22;29556;50.846;4.442;2022-08-01T08:53:10;24.20;71.30
43894;DHT22;29556;50.846;4.442;2022-08-01T08:55:41;24.20;71.80
43894;DHT22;29556;50.846;4.442;2022-08-01T08:58:11;24.30;72.20
43894;DHT22;29556;50.846;4.442;2022-08-01T09:00:41;24.30;71.70
43894;DHT22;29556;50.846;4.442;2022-08-01T09:03:07;24.30;70.80
43894;DHT22;29556;50.846;4.442;2022-08-01T09:05:34;24.20;70.00
43894;DHT22;29556;50.846;4.442;2022-08-01T09:07:59;24.20;70.00
43894;DHT22;29556;50.846;4.442;2022-08-01T09:10:25;24.20;69.50
43894;DHT22;29556;50.846;4.442;2022-08-01T09:13:09;24.40;69.50
43894;DHT22;29556;50.846;4.442;2022-08-01T09:15:47;24.60;70.30
43894;DHT22;29556;50.846;4.442;2022-08-01T09:18:33;24.90;70.50
43894;DHT22;29556;50.846;4.442;2022-08-01T09:26:15;25.00;66.30
43894;DHT22;29556;50.846;4.442;2022-08-01T09:28:41;25.00;67.30
43894;DHT22;29556;50.846;4.442;2022-08-01T09:31:17;25.00;64.10
43894;DHT22;29556;50.846;4.442;2022-08-01T09:34:12;25.00;65.90
43894;DHT22;29556;50.846;4.442;2022-08-01T09:36:49;25.20;66.50
43894;DHT22;29556;50.846;4.442;2022-08-01T09:39:22;25.30;65.70
43894;DHT22;29556;50.846;4.442;2022-08-01T09:41:48;25.20;61.40
43894;DHT22;29556;50.846;4.442;2022-08-01T09:44:14;25.00;61.80
43894;DHT22;29556;50.846;4.442;2022-08-01T09:46:53;25.00;64.70
43894;DHT22;29556;50.846;4.442;2022-08-01T09:49:30;25.00;62.70
43894;DHT22;29556;50.846;4.442;2022-08-01T09:51:58;25.10;64.70
43894;DHT22;29556;50.846;4.442;2022-08-01T09:54:32;25.00;62.10
43894;DHT22;29556;50.846;4.442;2022-08-01T09:57:13;25.00;64.10
43894;DHT22;29556;50.846;4.442;2022-08-01T09:59:42;25.00;62.90
43894;DHT22;29556;50.846;4.442;2022-08-01T10:02:12;24.90;62.40
43894;DHT22;29556;50.846;4.442;2022-08-01T10:04:50;24.80;63.80
43894;DHT22;29556;50.846;4.442;2022-08-01T10:07:17;24.80;63.50
43894;DHT22;29556;50.846;4.442;2022-08-01T10:09:44;24.90;64.70
43894;DHT22;29556;50.846;4.442;2022-08-01T10:12:12;25.10;64.00
43894;DHT22;29556;50.846;4.442;2022-08-01T10:14:39;25.20;65.50
43894;DHT22;29556;50.846;4.442;2022-08-01T10:17:08;25.50;65.20
43894;DHT22;29556;50.846;4.442;2022-08-01T10:19:35;25.70;66.10
43894;DHT22;29556;50.846;4.442;2022-08-01T10:22:01;25.80;64.80
43894;DHT22;29556;50.846;4.442;2022-08-01T10:24:29;25.80;62.80
43894;DHT22;29556;50.846;4.442;2022-08-01T10:26:58;25.80;63.70
43894;DHT22;29556;50.846;4.442;2022-08-01T10:29:27;25.90;64.40
43894;DHT22;29556;50.846;4.442;2022-08-01T10:31:56;26.00;63.20
43894;DHT22;29556;50.846;4.442;2022-08-01T10:34:22;26.00;62.70
43894;DHT22;29556;50.846;4.442;2022-08-01T10:36:48;26.10;60.30
43894;DHT22;29556;50.846;4.442;2022-08-01T10:39:14;26.00;59.70
43894;DHT22;29556;50.846;4.442;2022-08-01T10:41:41;26.00;60.70
43894;DHT22;29556;50.846;4.442;2022-08-01T10:44:10;26.00;60.80
43894;DHT22;29556;50.846;4.442;2022-08-01T10:46:38;26.00;61.10
43894;DHT22;29556;50.846;4.442;2022-08-01T10:49:09;26.10;63.60
43894;DHT22;29556;50.846;4.442;2022-08-01T10:51:37;26.20;62.20
43894;DHT22;29556;50.846;4.442;2022-08-01T10:54:09;26.20;60.40
43894;DHT22;29556;50.846;4.442;2022-08-01T10:56:48;26.40;61.30
43894;DHT22;29556;50.846;4.442;2022-08-01T10:59:26;26.40;60.50
43894;DHT22;29556;50.846;4.442;2022-08-01T11:02:01;26.40;58.60
43894;DHT22;29556;50.846;4.442;2022-08-01T11:07:07;26.50;60.40
43894;DHT22;29556;50.846;4.442;2022-08-01T11:09:43;26.50;59.80
43894;DHT22;29556;50.846;4.442;2022-08-01T11:12:11;26.50;60.60
43894;DHT22;29556;50.846;4.442;2022-08-01T11:17:36;26.50;58.70
43894;DHT22;29556;50.846;4.442;2022-08-01T11:38:45;26.70;57.90
43894;DHT22;29556;50.846;4.442;2022-08-01T11:41:16;26.70;57.00
43894;DHT22;29556;50.846;4.442;2022-08-01T11:44:02;26.70;56.50
43894;DHT22;29556;50.846;4.442;2022-08-01T11:46:52;26.60;56.90
43894;DHT22;29556;50.846;4.442;2022-08-01T11:49:43;26.60;57.90
43894;DHT22;29556;50.846;4.442;2022-08-01T11:54:50;26.70;58.30
43894;DHT22;29556;50.846;4.442;2022-08-01T11:57:27;26.70;57.60
43894;DHT22;29556;50.846;4.442;2022-08-01T11:59:58;26.60;54.50
43894;DHT22;29556;50.846;4.442;2022-08-01T12:02:29;26.30;54.10
43894;DHT22;29556;50.846;4.442;2022-08-01T12:05:07;26.40;55.70
43894;DHT22;29556;50.846;4.442;2022-08-01T12:07:34;26.50;56.10
43894;DHT22;29556;50.846;4.442;2022-08-01T12:12:42;26.50;56.50
43894;DHT22;29556;50.846;4.442;2022-08-01T12:15:09;26.50;55.70
43894;DHT22;29556;50.846;4.442;2022-08-01T12:17:37;26.60;55.80
43894;DHT22;29556;50.846;4.442;2022-08-01T12:20:09;26.60;55.10
43894;DHT22;29556;50.846;4.442;2022-08-01T12:22:35;26.40;52.90
43894;DHT22;29556;50.846;4.442;2022-08-01T12:25:15;26.30;52.90
43894;DHT22;29556;50.846;4.442;2022-08-01T12:27:44;26.30;52.10
43894;DHT22;29556;50.846;4.442;2022-08-01T12:30:15;26.30;52.80
43894;DHT22;29556;50.846;4.442;2022-08-01T12:32:44;26.40;53.90
43894;DHT22;29556;50.846;4.442;2022-08-01T12:35:16;26.30;52.60
43894;DHT22;29556;50.846;4.442;2022-08-01T12:37:47;26.60;53.50
43894;DHT22;29556;50.846;4.442;2022-08-01T12:40:17;26.80;54.00
43894;DHT22;29556;50.846;4.442;2022-08-01T12:42:45;27.10;53.10
43894;DHT22;29556;50.846;4.442;2022-08-01T12:45:15;27.30;54.40
43894;DHT22;29556;50.846;4.442;2022-08-01T12:47:42;27.40;52.10
43894;DHT22;29556;50.846;4.442;2022-08-01T12:50:15;27.50;53.10
43894;DHT22;29556;50.846;4.442;2022-08-01T12:52:42;27.50;53.90
43894;DHT22;29556;50.846;4.442;2022-08-01T12:55:15;27.40;51.30
43894;DHT22;29556;50.846;4.442;2022-08-01T12:57:48;27.40;51.30
43894;DHT22;29556;50.846;4.442;2022-08-01T13:00:20;27.50;52.30
43894;DHT22;29556;50.846;4.442;2022-08-01T13:05:51;27.50;51.60
43894;DHT22;29556;50.846;4.442;2022-08-01T13:08:22;27.60;52.40
43894;DHT22;29556;50.846;4.442;2022-08-01T13:10:49;27.70;53.80
43894;DHT22;29556;50.846;4.442;2022-08-01T13:13:18;27.80;53.40
43894;DHT22;29556;50.846;4.442;2022-08-01T13:15:45;27.80;52.50
43894;DHT22;29556;50.846;4.442;2022-08-01T13:18:26;27.80;52.10
43894;DHT22;29556;50.846;4.442;2022-08-01T13:21:12;27.70;51.60
43894;DHT22;29556;50.846;4.442;2022-08-01T13:23:40;27.70;51.70
43894;DHT22;29556;50.846;4.442;2022-08-01T13:26:07;27.60;51.50
43894;DHT22;29556;50.846;4.442;2022-08-01T13:28:33;27.50;51.60
43894;DHT22;29556;50.846;4.442;2022-08-01T13:31:03;27.50;51.30
43894;DHT22;29556;50.846;4.442;2022-08-01T13:33:45;27.50;50.80
43894;DHT22;29556;50.846;4.442;2022-08-01T13:36:11;27.40;50.60
43894;DHT22;29556;50.846;4.442;2022-08-01T13:38:39;27.40;51.60
43894;DHT22;29556;50.846;4.442;2022-08-01T13:41:23;27.30;49.70
43894;DHT22;29556;50.846;4.442;2022-08-01T13:43:49;27.20;50.30
43894;DHT22;29556;50.846;4.442;2022-08-01T13:46:15;26.90;49.40
43894;DHT22;29556;50.846;4.442;2022-08-01T13:48:41;26.70;49.60
43894;DHT22;29556;50.846;4.442;2022-08-01T13:51:07;26.50;49.90
43894;DHT22;29556;50.846;4.442;2022-08-01T13:53:33;26.60;51.70
43894;DHT22;29556;50.846;4.442;2022-08-01T13:55:59;26.60;51.30
43894;DHT22;29556;50.846;4.442;2022-08-01T13:58:24;26.70;51.20
43894;DHT22;29556;50.846;4.442;2022-08-01T14:00:53;26.80;51.90
43894;DHT22;29556;50.846;4.442;2022-08-01T14:03:19;26.90;51.20
43894;DHT22;29556;50.846;4.442;2022-08-01T14:05:46;26.80;50.30
43894;DHT22;29556;50.846;4.442;2022-08-01T14:08:12;26.80;50.20
43894;DHT22;29556;50.846;4.442;2022-08-01T14:10:37;26.90;50.50
43894;DHT22;29556;50.846;4.442;2022-08-01T14:13:03;27.10;50.40
43894;DHT22;29556;50.846;4.442;2022-08-01T14:15:31;27.20;48.80
43894;DHT22;29556;50.846;4.442;2022-08-01T14:17:57;27.20;48.70
43894;DHT22;29556;50.846;4.442;2022-08-01T14:20:23;27.30;49.70
43894;DHT22;29556;50.846;4.442;2022-08-01T14:22:49;27.20;49.50
43894;DHT22;29556;50.846;4.442;2022-08-01T14:25:15;27.20;49.20
43894;DHT22;29556;50.846;4.442;2022-08-01T14:27:40;27.10;49.90
43894;DHT22;29556;50.846;4.442;2022-08-01T14:30:07;27.00;50.50
43894;DHT22;29556;50.846;4.442;2022-08-01T14:32:35;26.90;50.50
43894;DHT22;29556;50.846;4.442;2022-08-01T14:35:02;26.90;51.20
43894;DHT22;29556;50.846;4.442;2022-08-01T14:37:27;26.80;50.80
43894;DHT22;29556;50.846;4.442;2022-08-01T14:39:55;26.80;50.90
43894;DHT22;29556;50.846;4.442;2022-08-01T14:42:22;26.90;51.20
43894;DHT22;29556;50.846;4.442;2022-08-01T14:44:47;26.80;50.70
43894;DHT22;29556;50.846;4.442;2022-08-01T14:47:13;26.90;51.40
43894;DHT22;29556;50.846;4.442;2022-08-01T14:49:39;26.90;50.50
43894;DHT22;29556;50.846;4.442;2022-08-01T14:52:07;26.90;49.70
43894;DHT22;29556;50.846;4.442;2022-08-01T14:54:33;26.90;49.30
43894;DHT22;29556;50.846;4.442;2022-08-01T14:56:59;26.70;48.90
43894;DHT22;29556;50.846;4.442;2022-08-01T14:59:24;26.70;50.00
43894;DHT22;29556;50.846;4.442;2022-08-01T15:01:50;26.60;50.90
43894;DHT22;29556;50.846;4.442;2022-08-01T15:04:16;26.50;50.20
43894;DHT22;29556;50.846;4.442;2022-08-01T15:06:43;26.50;49.70
43894;DHT22;29556;50.846;4.442;2022-08-01T15:09:09;26.40;50.10
43894;DHT22;29556;50.846;4.442;2022-08-01T15:11:36;26.30;50.70
43894;DHT22;29556;50.846;4.442;2022-08-01T15:14:02;26.20;50.60
43894;DHT22;29556;50.846;4.442;2022-08-01T15:16:46;26.20;51.20
43894;DHT22;29556;50.846;4.442;2022-08-01T15:19:11;26.00;51.20
43894;DHT22;29556;50.846;4.442;2022-08-01T15:21:37;26.00;50.80
43894;DHT22;29556;50.846;4.442;2022-08-01T15:24:03;26.00;49.70
43894;DHT22;29556;50.846;4.442;2022-08-01T15:26:29;26.10;50.50
43894;DHT22;29556;50.846;4.442;2022-08-01T15:28:56;26.00;48.50
43894;DHT22;29556;50.846;4.442;2022-08-01T15:31:22;26.00;50.00
43894;DHT22;29556;50.846;4.442;2022-08-01T15:33:47;26.20;51.50
43894;DHT22;29556;50.846;4.442;2022-08-01T15:36:13;26.20;50.70
43894;DHT22;29556;50.846;4.442;2022-08-01T15:38:39;26.30;50.20
43894;DHT22;29556;50.846;4.442;2022-08-01T15:41:07;26.40;49.70
43894;DHT22;29556;50.846;4.442;2022-08-01T15:43:33;26.50;49.00
43894;DHT22;29556;50.846;4.442;2022-08-01T15:45:59;26.60;49.40
43894;DHT22;29556;50.846;4.442;2022-08-01T15:48:29;26.50;47.60
43894;DHT22;29556;50.846;4.442;2022-08-01T15:50:55;26.30;47.00
43894;DHT22;29556;50.846;4.442;2022-08-01T15:53:24;26.20;46.90
43894;DHT22;29556;50.846;4.442;2022-08-01T15:55:51;26.40;49.20
43894;DHT22;29556;50.846;4.442;2022-08-01T15:58:17;26.60;48.80
43894;DHT22;29556;50.846;4.442;2022-08-01T16:00:43;26.60;48.10
43894;DHT22;29556;50.846;4.442;2022-08-01T16:03:08;26.70;49.40
43894;DHT22;29556;50.846;4.442;2022-08-01T16:05:35;26.60;47.00
43894;DHT22;29556;50.846;4.442;2022-08-01T16:08:01;26.70;48.60
43894;DHT22;29556;50.846;4.442;2022-08-01T16:10:28;26.80;49.10
43894;DHT22;29556;50.846;4.442;2022-08-01T16:12:54;26.80;49.00
43894;DHT22;29556;50.846;4.442;2022-08-01T16:15:20;26.90;48.50
43894;DHT22;29556;50.846;4.442;2022-08-01T16:17:45;26.80;47.10
43894;DHT22;29556;50.846;4.442;2022-08-01T16:20:11;27.00;47.20
43894;DHT22;29556;50.846;4.442;2022-08-01T16:22:37;27.00;47.50
43894;DHT22;29556;50.846;4.442;2022-08-01T16:25:04;27.10;47.40